Flight Track Log - Related Links

Times and Time Zones

All times are in EDT time to prevent confusion due to time zone crossing. See the N682DB flight status page for this flight to view local times or setup timezone preferences in your user account.

Time Position Orientation Groundspeed Altitude Reporting Facility
EDT Latitude Longitude Course Direction KTS MPH feet Rate Location/Type
Thu 04:41:35 PM 40.7833 -74.4333 169° South 187 215 1,600  Level New York TRACON
Thu 04:42:35 PM 40.7167 -74.4167 150° Southeast 268 308 3,400 2,100 Climbing New York TRACON
Thu 04:43:35 PM 40.6500 -74.3667 90° East 264 304 5,800 1,300 Climbing New York TRACON
Thu 04:44:35 PM 40.6500 -74.2667 153° Southeast 260 299 6,000 105 Climbing New York TRACON
Thu 04:45:29 PM 40.6000 -74.2333 207° Southwest 269 310 6,000 53 Level New York TRACON
Thu 04:46:29 PM 40.5500 -74.2667 163° South 261 300 6,100  Climbing New York TRACON
Thu 04:47:29 PM 40.4667 -74.2333 159° South 289 333 6,000 -50 Descending New York TRACON
Thu 04:48:29 PM 40.4000 -74.2000 177° South 264 304 6,000 490 Level New York TRACON
Thu 04:49:07 PM 40.3494 -74.1969 188° South 281 323 6,800 2,633 Climbing New York Center
Thu 04:50:07 PM 40.2761 -74.2097 187° South 296 341 10,300 4,000 Climbing New York Center
Thu 04:51:07 PM 40.1839 -74.2242 187° South 296 341 14,800 3,150 Climbing New York Center
Thu 04:52:07 PM 40.0939 -74.2386 193° South 307 353 16,600 1,488 Climbing New York Center
Thu 04:53:08 PM 39.9908 -74.2686 217° Southwest 361 415 17,800 1,779 Climbing New York Center
Thu 04:55:26 PM 39.7956 -74.4600 226° Southwest 407 468 22,500 2,152 Climbing Washington Center
Thu 04:56:26 PM 39.7194 -74.5636 226° Southwest 407 468 24,900 2,311 Climbing Washington Center
Thu 04:57:28 PM 39.6411 -74.6672 225° Southwest 407 468 27,200 2,319 Climbing Washington Center
Thu 04:58:25 PM 39.5628 -74.7678 225° Southwest 407 468 29,500 1,932 Climbing Washington Center
Thu 04:59:26 PM 39.4758 -74.8817 226° Southwest 402 463 31,000 1,770 Climbing Washington Center
Thu 05:00:27 PM 39.3994 -74.9847 225° Southwest 407 468 33,100 1,884 Climbing Washington Center
Thu 05:01:27 PM 39.3208 -75.0872 206° Southwest 402 463 34,800 1,462 Climbing Washington Center
Thu 05:02:26 PM 39.2250 -75.1469 198° South 395 455 36,000 600 Climbing Washington Center
Thu 05:03:27 PM 39.1106 -75.1956 196° South 405 466 36,000  Level Washington Center
Thu 05:04:27 PM 38.9942 -75.2392 198° South 424 488 36,000  Level Washington Center
Thu 05:05:27 PM 38.8733 -75.2903 199° South 446 513 36,000  Level Washington Center
Thu 05:06:25 PM 38.7544 -75.3414 197° South 446 513 36,000  Level Washington Center
Thu 05:07:25 PM 38.6378 -75.3869 199° South 446 513 36,000  Level Washington Center
Thu 05:08:26 PM 38.5211 -75.4378 197° South 446 513 36,000  Level Washington Center
Thu 05:09:26 PM 38.4044 -75.4831 207° Southwest 441 507 36,000  Level Washington Center
Thu 05:10:27 PM 38.2961 -75.5547 216° Southwest 441 507 36,000  Level Washington Center
Thu 05:11:27 PM 38.2003 -75.6444 216° Southwest 431 496 36,000  Level Washington Center
Thu 05:12:27 PM 38.1042 -75.7342 216° Southwest 437 503 36,000  Level Washington Center
Thu 05:13:25 PM 38.0081 -75.8236 217° Southwest 437 503 36,000  Level Washington Center
Thu 05:14:26 PM 37.9100 -75.9181 216° Southwest 437 503 36,000  Level Washington Center
Thu 05:15:26 PM 37.8117 -76.0072 219° Southwest 437 503 36,000  Level Washington Center
Thu 05:16:27 PM 37.7278 -76.0933 214° Southwest 437 503 36,000  Level Washington Center
Thu 05:17:27 PM 37.6169 -76.1894 216° Southwest 442 509 36,000  Level Washington Center
Thu 05:18:25 PM 37.5183 -76.2806 216° Southwest 442 509 36,000  Level Washington Center
Thu 05:19:25 PM 37.4197 -76.3711 216° Southwest 442 509 36,000  Level Washington Center
Thu 05:20:25 PM 37.3192 -76.4614 216° Southwest 442 509 36,000  Level Washington Center
Thu 05:21:26 PM 37.2183 -76.5542 216° Southwest 447 514 36,000  Level Washington Center
Thu 05:22:26 PM 37.1172 -76.6467 216° Southwest 457 526 36,000  Level Washington Center
Thu 05:23:27 PM 37.0186 -76.7364 215° Southwest 457 526 36,000  Level Washington Center
Thu 05:24:25 PM 36.9175 -76.8258 217° Southwest 452 520 36,000  Level Washington Center
Thu 05:25:26 PM 36.8183 -76.9178 216° Southwest 452 520 36,000  Level Washington Center
Thu 05:26:27 PM 36.7194 -77.0067 217° Southwest 452 520 36,000  Level Washington Center
Thu 05:27:25 PM 36.6222 -77.0981 218° Southwest 452 520 36,000  Level Washington Center
Thu 05:28:25 PM 36.5250 -77.1919 217° Southwest 452 520 36,000  Level Washington Center
Thu 05:29:26 PM 36.4278 -77.2828 217° Southwest 446 513 36,000  Level Washington Center
Thu 05:30:26 PM 36.3306 -77.3736 218° Southwest 441 507 36,000  Level Washington Center
Thu 05:31:27 PM 36.2375 -77.4642 218° Southwest 441 507 36,000  Level Washington Center
Thu 05:32:28 PM 36.1506 -77.5469 216° Southwest 441 507 36,000  Level Washington Center
Thu 05:33:25 PM 36.0511 -77.6369 216° Southwest 441 507 36,000  Level Washington Center
Thu 05:34:27 PM 35.9514 -77.7267 212° Southwest 446 513 36,000  Level Washington Center
Thu 05:35:27 PM 35.8497 -77.8061 212° Southwest 441 507 36,000  Level Washington Center
Thu 05:36:25 PM 35.7417 -77.8900 213° Southwest 447 514 36,000  Level Washington Center
Thu 05:37:25 PM 35.6381 -77.9714 212° Southwest 447 514 36,000  Level Washington Center
Thu 05:38:26 PM 35.5214 -78.0597 212° Southwest 447 514 36,000  Level Washington Center
Thu 05:39:26 PM 35.4153 -78.1406 213° Southwest 452 520 36,000  Level Washington Center
Thu 05:40:25 PM 35.3114 -78.2239 211° Southwest 452 520 36,000  Level Washington Center
Thu 05:41:25 PM 35.2031 -78.3042 213° Southwest 452 520 36,000  Level Washington Center
Thu 05:42:26 PM 35.0967 -78.3894 213° Southwest 457 526 36,000  Level Washington Center
Thu 05:43:27 PM 35.0033 -78.4622 212° Southwest 457 526 36,000  Level Washington Center
Thu 05:44:26 PM 34.8950 -78.5447 213° Southwest 463 533 36,000  Level Washington Center
Thu 05:45:26 PM 34.7819 -78.6342 211° Southwest 453 521 36,000  Level Washington Center
Thu 05:47:09 PM 34.5931 -78.7717 213° Southwest 477 549 36,000  Level Jacksonville Center
Thu 05:48:09 PM 34.5017 -78.8439 222° Southwest 458 527 36,000  Level Jacksonville Center
Thu 05:49:09 PM 34.4089 -78.9464 221° Southwest 453 521 36,000  Level Jacksonville Center
Thu 05:50:10 PM 34.3158 -79.0436 220° Southwest 453 521 36,000  Level Jacksonville Center
Thu 05:51:09 PM 34.2228 -79.1381 221° Southwest 448 516 36,000 -101 Level Jacksonville Center
Thu 05:52:09 PM 34.1197 -79.2481 220° Southwest 448 516 35,800 -496 Descending Jacksonville Center
Thu 05:53:10 PM 34.0264 -79.3419 220° Southwest 448 516 35,000 -750 Descending Jacksonville Center
Thu 05:54:09 PM 33.9553 -79.4150 218° Southwest 438 504 34,300 -1,059 Descending Jacksonville Center
Thu 05:55:09 PM 33.8597 -79.5039 221° Southwest 423 487 32,900 -1,190 Descending Jacksonville Center
Thu 05:56:10 PM 33.7706 -79.5972 220° Southwest 418 481 31,900 -750 Descending Jacksonville Center
Thu 05:57:09 PM 33.6747 -79.6931 220° Southwest 433 498 31,400 -403 Descending Jacksonville Center
Thu 05:58:09 PM 33.5669 -79.8017 220° Southwest 454 522 31,100 -198 Descending Jacksonville Center
Thu 05:59:10 PM 33.4711 -79.8972 220° Southwest 454 522 31,000 -446 Descending Jacksonville Center
Thu 06:00:10 PM 33.3753 -79.9950 220° Southwest 459 528 30,200 -1,650 Descending Jacksonville Center
Thu 06:01:10 PM 33.2775 -80.0925 220° Southwest 464 534 27,700 -2,400 Descending Jacksonville Center
Thu 06:02:10 PM 33.1794 -80.1925 221° Southwest 464 534 25,400 -1,850 Descending Jacksonville Center
Thu 06:03:10 PM 33.0875 -80.2869 218° Southwest 463 533 24,000 -1,650 Descending Jacksonville Center
Thu 06:04:10 PM 33.0014 -80.3661 220° Southwest 428 493 22,100 -2,350 Descending Jacksonville Center
Thu 06:05:10 PM 32.9214 -80.4450 220° Southwest 402 463 19,300 -2,300 Descending Jacksonville Center
Thu 06:06:10 PM 32.8478 -80.5189 220° Southwest 379 436 17,500 -1,950 Descending Jacksonville Center
Thu 06:07:10 PM 32.7678 -80.5975 219° Southwest 369 425 15,400 -2,000 Descending Jacksonville Center
Thu 06:08:10 PM 32.6919 -80.6711 219° Southwest 369 425 13,500 -1,900 Descending Jacksonville Center
Thu 06:09:10 PM 32.6158 -80.7444 220° Southwest 359 413 11,600 -1,800 Descending Jacksonville Center
Thu 06:10:10 PM 32.5483 -80.8125 219° Southwest 339 390 9,900 -1,600 Descending Jacksonville Center
Thu 06:11:10 PM 32.4886 -80.8706 219° Southwest 319 367 8,400 -1,550 Descending Jacksonville Center
Thu 06:12:10 PM 32.4208 -80.9361 219° Southwest 301 346 6,800 -1,550 Descending Jacksonville Center
Thu 06:13:10 PM 32.3611 -80.9939 219° Southwest 291 335 5,300 -1,400 Descending Jacksonville Center
Thu 06:14:10 PM 32.3056 -81.0467 216° Southwest 265 305 4,000 -850 Descending Jacksonville Center
Thu 06:15:10 PM 32.2622 -81.0844 239° Southwest 239 275 3,600 -650 Descending Jacksonville Center
Thu 06:16:10 PM 32.2297 -81.1489 232° Southwest 221 254 2,700 -950 Descending Jacksonville Center
Thu 06:17:10 PM 32.1989 -81.1961 192° South 195 224 1,700 -900 Descending Jacksonville Center
Thu 06:18:10 PM 32.1678 -81.2042 193° South 137 158 900 -700 Descending Jacksonville Center
Thu 06:19:10 PM 32.1386 -81.2119 193° South 118 136 300 -600 Descending Jacksonville Center

Login

Don't have an account? Register now (free) for customized features, flight alerts, and more!